Time;durP1;ratioP1;P1;durP2;ratioP2;P2;SDS_P1;SDS_P2;PMS_P1;PMS_P2;Temp;Humidity;BMP_temperature;BMP_pressure;BME280_temperature;BME280_humidity;BME280_pressure;Samples;Min_cycle;Max_cycle;Signal;HPM_P1;HPM_P2
2023/11/02 00:01:26;;;;;;;3.73;2.87;;;;;;;;;;5116523;28;20446;-60
2023/11/02 00:03:53;;;;;;;4.30;2.90;;;;;;;;;;5116544;28;21001;-60
2023/11/02 00:06:24;;;;;;;2.53;2.33;;;;;;;;;;5116329;28;20528;-60
2023/11/02 00:09:04;;;;;;;3.97;2.17;;;;;;;;;;5116611;28;20937;-60
2023/11/02 00:11:49;;;;;;;3.40;2.70;;;;;;;;;;5116400;28;20778;-60
2023/11/02 00:14:17;;;;;;;2.40;2.23;;;;;;;;;;5116258;28;20881;-60
2023/11/02 00:16:45;;;;;;;3.53;2.30;;;;;;;;;;5115358;28;20447;-60
2023/11/02 00:19:17;;;;;;;4.20;2.53;;;;;;;;;;5116306;28;20528;-60
2023/11/02 00:21:43;;;;;;;2.77;2.13;;;;;;;;;;5116178;28;20544;-60
2023/11/02 00:24:10;;;;;;;7.07;2.60;;;;;;;;;;5116099;28;20540;-60
2023/11/02 00:26:37;;;;;;;3.43;2.40;;;;;;;;;;5115984;28;20528;-60
2023/11/02 00:29:04;;;;;;;2.43;2.13;;;;;;;;;;5115877;28;20442;-60
2023/11/02 00:31:32;;;;;;;5.40;2.77;;;;;;;;;;5116118;28;20434;-60
2023/11/02 00:34:00;;;;;;;2.30;2.10;;;;;;;;;;5115922;28;20495;-60
2023/11/02 00:36:27;;;;;;;3.97;2.27;;;;;;;;;;5115943;28;20441;-60
2023/11/02 00:38:57;;;;;;;2.43;2.23;;;;;;;;;;5116283;28;20438;-60
2023/11/02 00:41:24;;;;;;;2.43;2.23;;;;;;;;;;5115711;28;20865;-61
2023/11/02 00:43:51;;;;;;;3.30;2.13;;;;;;;;;;5115405;28;20824;-61
2023/11/02 00:46:18;;;;;;;2.90;2.00;;;;;;;;;;5116055;28;20517;-60
2023/11/02 00:48:47;;;;;;;1.70;1.60;;;;;;;;;;5115652;28;20532;-61
2023/11/02 00:51:27;;;;;;;3.00;2.07;;;;;;;;;;5115619;28;20446;-61
2023/11/02 00:53:55;;;;;;;2.27;2.07;;;;;;;;;;5115463;28;20477;-60
2023/11/02 00:56:22;;;;;;;1.90;1.80;;;;;;;;;;5115330;28;20438;-60
2023/11/02 00:58:52;;;;;;;3.30;2.40;;;;;;;;;;5115573;28;20480;-60
2023/11/02 01:01:21;;;;;;;2.90;1.60;;;;;;;;;;5115445;28;20453;-60
2023/11/02 01:03:49;;;;;;;3.63;1.80;;;;;;;;;;5115365;28;20446;-60
2023/11/02 01:06:19;;;;;;;2.00;1.80;;;;;;;;;;5115267;28;20786;-61
2023/11/02 01:08:49;;;;;;;2.23;1.80;;;;;;;;;;5115104;28;20453;-60
2023/11/02 01:11:16;;;;;;;1.83;1.73;;;;;;;;;;5115823;28;20446;-60
2023/11/02 01:13:43;;;;;;;2.70;1.70;;;;;;;;;;5115189;28;20444;-60
2023/11/02 01:16:10;;;;;;;1.50;1.40;;;;;;;;;;5115057;28;20567;-60
2023/11/02 01:18:40;;;;;;;3.37;1.70;;;;;;;;;;5114998;28;20615;-60
2023/11/02 01:21:08;;;;;;;1.70;1.57;;;;;;;;;;5114756;28;21024;-61
2023/11/02 01:23:37;;;;;;;1.87;1.60;;;;;;;;;;5115089;28;20474;-60
2023/11/02 01:26:04;;;;;;;1.90;1.80;;;;;;;;;;5114752;28;20533;-60
2023/11/02 01:28:49;;;;;;;2.67;1.60;;;;;;;;;;5114364;28;20453;-60
2023/11/02 01:31:17;;;;;;;1.93;1.37;;;;;;;;;;5114632;28;20952;-60
2023/11/02 01:33:55;;;;;;;3.20;1.67;;;;;;;;;;5114609;28;20922;-60
2023/11/02 01:36:27;;;;;;;4.40;2.07;;;;;;;;;;5114887;28;20482;-60
2023/11/02 01:39:00;;;;;;;2.40;1.43;;;;;;;;;;5114641;28;21009;-60
2023/11/02 01:41:32;;;;;;;1.80;1.70;;;;;;;;;;5114696;28;20549;-60
2023/11/02 01:44:04;;;;;;;2.67;1.87;;;;;;;;;;5114365;28;20478;-60
2023/11/02 01:46:36;;;;;;;3.50;1.77;;;;;;;;;;5114696;28;20446;-60
2023/11/02 01:49:08;;;;;;;1.70;1.60;;;;;;;;;;5114396;28;20975;-60
2023/11/02 01:51:36;;;;;;;2.13;1.93;;;;;;;;;;5114448;28;20453;-60
2023/11/02 01:54:09;;;;;;;2.07;1.53;;;;;;;;;;5114545;28;20491;-60
2023/11/02 01:56:42;;;;;;;2.00;1.83;;;;;;;;;;5114287;28;20488;-60
2023/11/02 01:59:14;;;;;;;3.43;1.53;;;;;;;;;;5114476;28;20498;-60
2023/11/02 02:01:43;;;;;;;1.90;1.70;;;;;;;;;;5114284;28;20461;-60
2023/11/02 02:04:16;;;;;;;2.43;1.53;;;;;;;;;;5114239;28;20820;-60
2023/11/02 02:06:48;;;;;;;2.37;1.90;;;;;;;;;;5114210;28;20479;-60
2023/11/02 02:09:26;;;;;;;3.23;1.83;;;;;;;;;;5113958;28;20499;-60
2023/11/02 02:11:58;;;;;;;4.30;2.13;;;;;;;;;;5114116;28;20456;-60
2023/11/02 02:14:27;;;;;;;3.10;2.10;;;;;;;;;;5114058;28;20461;-60
2023/11/02 02:16:57;;;;;;;2.30;1.80;;;;;;;;;;5114019;28;20812;-60
2023/11/02 02:19:43;;;;;;;3.00;1.70;;;;;;;;;;5113800;28;20448;-60
2023/11/02 02:22:12;;;;;;;3.53;2.00;;;;;;;;;;5114227;28;20455;-60
2023/11/02 02:24:44;;;;;;;4.27;1.87;;;;;;;;;;5113955;28;20483;-60
2023/11/02 02:27:26;;;;;;;2.10;1.90;;;;;;;;;;5113911;28;20477;-60
2023/11/02 02:30:08;;;;;;;3.53;1.87;;;;;;;;;;5111139;28;20446;-60
2023/11/02 02:32:45;;;;;;;1.67;1.57;;;;;;;;;;5069649;28;20491;-60
2023/11/02 02:35:14;;;;;;;2.20;1.90;;;;;;;;;;5113715;28;20481;-60
2023/11/02 02:37:45;;;;;;;3.33;2.07;;;;;;;;;;5113466;28;20858;-60
2023/11/02 02:40:16;;;;;;;2.13;1.90;;;;;;;;;;5113567;28;20536;-60
2023/11/02 02:42:44;;;;;;;7.60;2.10;;;;;;;;;;5113457;28;20529;-60
2023/11/02 02:45:13;;;;;;;2.17;1.80;;;;;;;;;;5113602;28;20869;-60
2023/11/02 02:47:41;;;;;;;3.10;2.10;;;;;;;;;;5113624;28;20883;-60
2023/11/02 02:50:10;;;;;;;3.43;1.80;;;;;;;;;;5113559;28;20449;-60
2023/11/02 02:52:39;;;;;;;7.73;1.77;;;;;;;;;;5113470;28;20445;-60
2023/11/02 02:55:07;;;;;;;3.10;2.00;;;;;;;;;;5113265;28;20485;-60
2023/11/02 02:57:36;;;;;;;4.00;1.50;;;;;;;;;;5113532;28;20438;-60
2023/11/02 03:00:04;;;;;;;2.60;1.70;;;;;;;;;;5113436;28;20450;-60
2023/11/02 03:02:32;;;;;;;3.33;1.80;;;;;;;;;;5113373;28;20541;-60
2023/11/02 03:05:00;;;;;;;1.73;1.53;;;;;;;;;;5113372;28;20906;-60
2023/11/02 03:07:28;;;;;;;4.47;1.47;;;;;;;;;;5113266;28;21024;-60
2023/11/02 03:09:59;;;;;;;3.07;1.80;;;;;;;;;;5113513;28;20433;-60
2023/11/02 03:12:28;;;;;;;1.97;1.80;;;;;;;;;;5113329;28;20856;-60
2023/11/02 03:14:55;;;;;;;2.37;1.87;;;;;;;;;;5113265;28;20492;-60
2023/11/02 03:17:31;;;;;;;2.40;1.30;;;;;;;;;;5113278;28;20445;-60
2023/11/02 03:19:58;;;;;;;1.60;1.50;;;;;;;;;;5113179;28;20445;-60
2023/11/02 03:22:26;;;;;;;5.80;1.47;;;;;;;;;;5113315;28;20633;-60
2023/11/02 03:25:03;;;;;;;2.90;1.70;;;;;;;;;;5113243;28;20557;-60
2023/11/02 03:27:32;;;;;;;2.27;1.97;;;;;;;;;;5113187;28;20536;-60
2023/11/02 03:30:03;;;;;;;5.33;1.63;;;;;;;;;;5113161;28;20444;-60
2023/11/02 03:32:35;;;;;;;1.73;1.63;;;;;;;;;;5112962;28;20441;-60
2023/11/02 03:35:04;;;;;;;2.60;1.40;;;;;;;;;;5113214;28;20466;-60
2023/11/02 03:37:36;;;;;;;1.83;1.33;;;;;;;;;;5112980;28;21008;-60
2023/11/02 03:40:16;;;;;;;2.90;1.90;;;;;;;;;;5112980;28;20944;-60
2023/11/02 03:42:49;;;;;;;2.80;1.63;;;;;;;;;;5113002;28;20884;-60
2023/11/02 03:45:22;;;;;;;3.63;1.50;;;;;;;;;;5113066;28;20469;-60
2023/11/02 03:47:57;;;;;;;3.20;1.43;;;;;;;;;;5113134;28;20536;-60
2023/11/02 03:50:32;;;;;;;3.53;1.77;;;;;;;;;;5113875;28;20448;-60
2023/11/02 03:53:04;;;;;;;4.50;1.50;;;;;;;;;;5116748;28;20445;-60
2023/11/02 03:55:38;;;;;;;1.63;1.53;;;;;;;;;;5116555;28;20508;-60
2023/11/02 03:58:09;;;;;;;1.57;1.27;;;;;;;;;;5116883;28;20442;-60
2023/11/02 04:00:42;;;;;;;3.20;1.80;;;;;;;;;;5117046;28;20448;-60
2023/11/02 04:03:11;;;;;;;2.00;1.33;;;;;;;;;;5116605;28;20455;-60
2023/11/02 04:05:39;;;;;;;5.30;1.60;;;;;;;;;;5116475;28;20445;-60
2023/11/02 04:08:10;;;;;;;5.47;2.10;;;;;;;;;;5116315;28;20948;-60
2023/11/02 04:10:43;;;;;;;5.70;2.30;;;;;;;;;;5116541;28;20446;-60
2023/11/02 04:13:19;;;;;;;2.10;1.90;;;;;;;;;;5116375;28;20445;-60
2023/11/02 04:15:46;;;;;;;1.60;1.50;;;;;;;;;;5116287;28;20997;-60
2023/11/02 04:18:13;;;;;;;2.93;1.50;;;;;;;;;;5116376;28;20519;-60
2023/11/02 04:20:40;;;;;;;1.80;1.57;;;;;;;;;;5116377;28;20457;-60
2023/11/02 04:23:08;;;;;;;2.40;1.77;;;;;;;;;;5116035;28;20479;-60
2023/11/02 04:25:35;;;;;;;4.70;2.00;;;;;;;;;;5116027;28;20843;-60
2023/11/02 04:28:03;;;;;;;2.10;1.87;;;;;;;;;;5115810;28;20937;-59
2023/11/02 04:30:30;;;;;;;2.50;2.10;;;;;;;;;;5115663;28;20449;-60
2023/11/02 04:32:57;;;;;;;5.67;2.00;;;;;;;;;;5115583;28;20441;-60
2023/11/02 04:35:24;;;;;;;4.30;1.97;;;;;;;;;;5115677;28;20473;-60
2023/11/02 04:38:04;;;;;;;3.33;1.57;;;;;;;;;;5115645;28;20958;-60
2023/11/02 04:40:32;;;;;;;5.80;1.90;;;;;;;;;;5115553;28;20452;-60
2023/11/02 04:42:59;;;;;;;2.67;1.90;;;;;;;;;;5115407;28;20506;-60
2023/11/02 04:45:28;;;;;;;1.97;1.60;;;;;;;;;;5115211;28;20481;-60
2023/11/02 04:47:55;;;;;;;1.83;1.53;;;;;;;;;;5116160;28;20949;-60
2023/11/02 04:50:23;;;;;;;5.57;1.73;;;;;;;;;;5115789;28;20889;-60
2023/11/02 04:52:50;;;;;;;4.20;1.80;;;;;;;;;;5115549;28;20534;-61
2023/11/02 04:55:17;;;;;;;4.80;1.90;;;;;;;;;;5115669;28;20442;-61
2023/11/02 04:57:44;;;;;;;3.53;1.93;;;;;;;;;;5115384;28;20445;-61
2023/11/02 05:00:12;;;;;;;2.40;1.60;;;;;;;;;;5115234;28;20955;-61
2023/11/02 05:02:40;;;;;;;2.60;1.53;;;;;;;;;;5115178;28;20442;-61
2023/11/02 05:05:07;;;;;;;3.00;1.67;;;;;;;;;;5115207;28;20454;-60
2023/11/02 05:07:34;;;;;;;3.10;1.60;;;;;;;;;;5115312;28;20460;-60
2023/11/02 05:10:03;;;;;;;2.40;1.80;;;;;;;;;;5115199;28;20538;-60
2023/11/02 05:12:30;;;;;;;4.20;1.60;;;;;;;;;;5114956;28;20442;-60
2023/11/02 05:14:57;;;;;;;2.57;1.70;;;;;;;;;;5115266;28;20442;-60
2023/11/02 05:17:24;;;;;;;3.13;1.30;;;;;;;;;;5115047;28;20569;-60
2023/11/02 05:19:52;;;;;;;2.80;1.60;;;;;;;;;;5115062;28;20441;-61
2023/11/02 05:22:19;;;;;;;2.63;2.00;;;;;;;;;;5114887;28;20444;-60
2023/11/02 05:24:46;;;;;;;2.80;1.63;;;;;;;;;;5114968;28;20525;-60
2023/11/02 05:27:13;;;;;;;4.40;1.73;;;;;;;;;;5114744;28;20441;-61
2023/11/02 05:29:40;;;;;;;3.80;1.90;;;;;;;;;;5115004;28;20835;-61
2023/11/02 05:32:09;;;;;;;1.70;1.60;;;;;;;;;;5114802;28;20524;-59
2023/11/02 05:34:36;;;;;;;3.13;1.77;;;;;;;;;;5114658;28;20442;-59
2023/11/02 05:37:05;;;;;;;4.53;1.50;;;;;;;;;;5114622;28;20481;-59
2023/11/02 05:39:32;;;;;;;1.53;1.43;;;;;;;;;;5114512;28;20446;-59
2023/11/02 05:41:59;;;;;;;2.03;1.83;;;;;;;;;;5114714;28;20464;-59
2023/11/02 05:44:26;;;;;;;3.97;2.17;;;;;;;;;;5114464;28;20875;-60
2023/11/02 05:46:53;;;;;;;3.47;1.53;;;;;;;;;;5114608;28;20442;-59
2023/11/02 05:49:20;;;;;;;2.03;1.90;;;;;;;;;;5114466;28;20450;-59
2023/11/02 05:51:47;;;;;;;2.43;1.90;;;;;;;;;;5114643;28;20471;-59
2023/11/02 05:54:15;;;;;;;3.53;2.27;;;;;;;;;;5114180;28;20506;-59
2023/11/02 05:56:42;;;;;;;3.37;1.60;;;;;;;;;;5114330;28;20572;-59
2023/11/02 05:59:10;;;;;;;1.93;1.73;;;;;;;;;;5114148;28;21004;-59
2023/11/02 06:01:37;;;;;;;3.40;1.77;;;;;;;;;;5114246;28;20449;-60
2023/11/02 06:04:04;;;;;;;6.87;1.87;;;;;;;;;;5114184;28;20520;-59
2023/11/02 06:06:31;;;;;;;4.60;4.20;;;;;;;;;;5114027;28;20536;-59
2023/11/02 06:08:58;;;;;;;5.93;3.60;;;;;;;;;;5113953;28;20982;-59
2023/11/02 06:11:26;;;;;;;4.80;3.10;;;;;;;;;;5114141;28;20851;-59
2023/11/02 06:13:53;;;;;;;3.00;2.67;;;;;;;;;;5113668;28;20544;-59
2023/11/02 06:16:21;;;;;;;6.43;3.00;;;;;;;;;;5113945;28;20477;-59
2023/11/02 06:18:49;;;;;;;3.60;2.97;;;;;;;;;;5113866;28;20446;-59
2023/11/02 06:21:16;;;;;;;3.43;3.13;;;;;;;;;;5113979;28;20442;-59
2023/11/02 06:23:43;;;;;;;3.50;2.47;;;;;;;;;;5113957;28;20447;-59
2023/11/02 06:26:10;;;;;;;3.40;2.50;;;;;;;;;;5113882;28;20873;-59
2023/11/02 06:28:38;;;;;;;5.93;2.30;;;;;;;;;;5113727;28;20452;-59
2023/11/02 06:31:06;;;;;;;3.40;2.40;;;;;;;;;;5113951;28;20529;-59
2023/11/02 06:33:33;;;;;;;2.80;2.57;;;;;;;;;;5113678;28;20528;-59
2023/11/02 06:36:00;;;;;;;6.13;2.80;;;;;;;;;;5113442;28;20916;-59
2023/11/02 06:38:29;;;;;;;4.80;2.67;;;;;;;;;;5113812;28;21029;-59
2023/11/02 06:40:56;;;;;;;2.60;2.40;;;;;;;;;;5113388;28;20509;-59
2023/11/02 06:43:23;;;;;;;2.70;2.07;;;;;;;;;;5113427;28;20450;-59
2023/11/02 06:45:52;;;;;;;4.00;3.00;;;;;;;;;;5113464;28;20868;-59
2023/11/02 06:48:19;;;;;;;7.90;2.60;;;;;;;;;;5113399;28;20446;-59
2023/11/02 06:50:47;;;;;;;4.80;3.20;;;;;;;;;;5113391;28;20940;-59
2023/11/02 06:53:13;;;;;;;5.00;2.37;;;;;;;;;;5113611;28;20563;-59
2023/11/02 06:55:41;;;;;;;1.87;1.77;;;;;;;;;;5113361;28;20544;-59
2023/11/02 06:58:07;;;;;;;4.23;2.17;;;;;;;;;;5113384;28;20498;-59
2023/11/02 07:00:34;;;;;;;2.70;2.20;;;;;;;;;;5113518;28;20446;-59
2023/11/02 07:03:03;;;;;;;4.47;2.03;;;;;;;;;;5113181;28;20441;-59
2023/11/02 07:05:30;;;;;;;2.67;2.00;;;;;;;;;;5113368;28;20524;-59
2023/11/02 07:07:57;;;;;;;2.50;2.30;;;;;;;;;;5113274;28;20449;-59
2023/11/02 07:10:25;;;;;;;2.77;2.50;;;;;;;;;;5113229;28;21045;-59
2023/11/02 07:12:53;;;;;;;5.23;2.63;;;;;;;;;;5113180;28;20793;-59
2023/11/02 07:15:22;;;;;;;3.67;2.47;;;;;;;;;;5113121;28;20801;-59
2023/11/02 07:17:49;;;;;;;3.53;2.27;;;;;;;;;;5113188;28;20836;-59
2023/11/02 07:20:18;;;;;;;2.03;1.93;;;;;;;;;;5113146;28;20467;-59
2023/11/02 07:22:45;;;;;;;2.67;1.90;;;;;;;;;;5112902;28;20488;-59
2023/11/02 07:25:11;;;;;;;2.80;2.00;;;;;;;;;;5115322;28;20529;-59
2023/11/02 07:27:38;;;;;;;3.73;2.63;;;;;;;;;;5116698;28;20514;-60
2023/11/02 07:30:06;;;;;;;2.50;2.00;;;;;;;;;;5116529;28;20438;-59
2023/11/02 07:32:33;;;;;;;2.00;1.90;;;;;;;;;;5117122;28;20507;-59
2023/11/02 07:35:00;;;;;;;2.47;2.27;;;;;;;;;;5117057;28;20452;-60
2023/11/02 07:37:29;;;;;;;3.10;2.03;;;;;;;;;;5116946;28;20561;-59
2023/11/02 07:39:56;;;;;;;2.13;2.03;;;;;;;;;;5116899;28;20537;-59
2023/11/02 07:42:23;;;;;;;10.00;2.73;;;;;;;;;;5116653;28;21007;-59
2023/11/02 07:44:50;;;;;;;2.80;2.33;;;;;;;;;;5116697;28;20556;-59
2023/11/02 07:47:17;;;;;;;3.77;2.10;;;;;;;;;;5116653;28;20481;-58
2023/11/02 07:49:44;;;;;;;2.70;2.07;;;;;;;;;;5116807;28;20448;-59
2023/11/02 07:52:11;;;;;;;1.90;1.80;;;;;;;;;;5116490;28;20446;-60
2023/11/02 07:54:39;;;;;;;3.80;2.07;;;;;;;;;;5116534;28;20532;-59
2023/11/02 07:57:08;;;;;;;2.93;1.90;;;;;;;;;;5116377;28;20477;-60
2023/11/02 07:59:35;;;;;;;3.03;2.13;;;;;;;;;;5116515;28;20441;-60
2023/11/02 08:02:02;;;;;;;3.57;2.00;;;;;;;;;;5116299;28;20446;-60
2023/11/02 08:04:29;;;;;;;4.43;1.60;;;;;;;;;;5116480;28;20453;-59
2023/11/02 08:06:56;;;;;;;3.70;1.77;;;;;;;;;;5116367;28;20445;-62
2023/11/02 08:09:23;;;;;;;7.93;2.40;;;;;;;;;;5116176;28;20441;-59
2023/11/02 08:11:52;;;;;;;2.37;2.17;;;;;;;;;;5115987;28;20991;-59
2023/11/02 08:14:19;;;;;;;2.93;2.03;;;;;;;;;;5116095;28;20562;-61
2023/11/02 08:16:46;;;;;;;2.87;2.67;;;;;;;;;;5116030;28;20495;-60
2023/11/02 08:19:13;;;;;;;3.07;2.23;;;;;;;;;;5115923;28;20442;-59
2023/11/02 08:21:42;;;;;;;2.97;2.23;;;;;;;;;;5115954;28;20449;-59
2023/11/02 08:24:09;;;;;;;3.63;2.07;;;;;;;;;;5115841;28;20477;-59
2023/11/02 08:26:37;;;;;;;2.93;1.80;;;;;;;;;;5116031;28;20448;-59
2023/11/02 08:29:05;;;;;;;2.30;2.10;;;;;;;;;;5116032;28;20805;-58
2023/11/02 08:31:33;;;;;;;2.37;1.50;;;;;;;;;;5115773;28;20444;-59
2023/11/02 08:34:00;;;;;;;6.93;2.17;;;;;;;;;;5115987;28;20778;-59
2023/11/02 08:36:28;;;;;;;1.97;1.77;;;;;;;;;;5114950;28;20532;-59
2023/11/02 08:38:55;;;;;;;1.60;1.50;;;;;;;;;;5115584;28;20453;-61
2023/11/02 08:41:23;;;;;;;2.33;1.53;;;;;;;;;;5115669;28;20442;-61
2023/11/02 08:43:50;;;;;;;1.37;1.27;;;;;;;;;;5115646;28;20976;-60
2023/11/02 08:46:19;;;;;;;1.60;1.40;;;;;;;;;;5115404;28;20448;-61
2023/11/02 08:48:47;;;;;;;2.70;1.40;;;;;;;;;;5115466;28;20929;-59
2023/11/02 08:51:16;;;;;;;1.67;1.50;;;;;;;;;;5115281;28;20876;-60
2023/11/02 08:53:43;;;;;;;2.03;1.50;;;;;;;;;;5115572;28;20477;-60
2023/11/02 08:56:10;;;;;;;2.53;1.70;;;;;;;;;;5115438;28;20549;-60
2023/11/02 08:58:41;;;;;;;2.23;1.80;;;;;;;;;;5115233;28;20473;-60
2023/11/02 09:01:10;;;;;;;9.53;2.67;;;;;;;;;;5115092;28;20446;-59
2023/11/02 09:03:38;;;;;;;1.60;1.50;;;;;;;;;;5115167;28;20454;-60
2023/11/02 09:06:06;;;;;;;3.03;1.50;;;;;;;;;;5115272;28;20872;-61
2023/11/02 09:08:33;;;;;;;1.73;1.40;;;;;;;;;;5115227;28;20477;-62
2023/11/02 09:11:00;;;;;;;2.00;1.60;;;;;;;;;;5115136;28;20537;-61
2023/11/02 09:13:27;;;;;;;1.80;1.67;;;;;;;;;;5114965;28;20444;-61
2023/11/02 09:15:54;;;;;;;2.50;1.77;;;;;;;;;;5109352;28;21023;-59
2023/11/02 09:18:21;;;;;;;2.87;2.40;;;;;;;;;;5114785;28;20469;-59
2023/11/02 09:20:50;;;;;;;3.17;1.77;;;;;;;;;;5114992;28;20476;-59
2023/11/02 09:23:17;;;;;;;3.13;1.70;;;;;;;;;;5114769;28;20441;-59
2023/11/02 09:25:45;;;;;;;1.30;1.20;;;;;;;;;;5114818;28;20532;-59
2023/11/02 09:28:13;;;;;;;2.50;1.63;;;;;;;;;;5114607;28;20506;-59
2023/11/02 09:30:40;;;;;;;1.23;1.13;;;;;;;;;;5114692;28;20437;-59
2023/11/02 09:33:07;;;;;;;1.50;1.37;;;;;;;;;;5114548;28;20893;-60
2023/11/02 09:35:34;;;;;;;3.43;1.70;;;;;;;;;;5114701;28;20528;-59
2023/11/02 09:38:03;;;;;;;2.50;1.60;;;;;;;;;;5114528;28;20568;-59
2023/11/02 09:40:32;;;;;;;2.20;1.63;;;;;;;;;;5114304;28;21012;-59
2023/11/02 09:43:02;;;;;;;1.30;1.20;;;;;;;;;;5114312;28;20452;-61
2023/11/02 09:45:29;;;;;;;1.50;1.40;;;;;;;;;;5114300;28;20469;-62
2023/11/02 09:47:56;;;;;;;2.10;1.93;;;;;;;;;;5113520;28;20532;-61
2023/11/02 09:50:23;;;;;;;2.73;1.33;;;;;;;;;;5114221;28;20932;-62
2023/11/02 09:52:50;;;;;;;2.57;1.60;;;;;;;;;;5114221;28;20445;-62
2023/11/02 09:55:20;;;;;;;1.30;1.20;;;;;;;;;;5114137;28;20468;-60
2023/11/02 09:57:48;;;;;;;4.70;1.87;;;;;;;;;;5113760;28;20887;-61
2023/11/02 10:00:17;;;;;;;1.00;0.90;;;;;;;;;;5113707;28;20886;-59
2023/11/02 10:02:44;;;;;;;5.20;1.50;;;;;;;;;;5114111;28;20449;-59
2023/11/02 10:05:11;;;;;;;1.97;1.10;;;;;;;;;;5114303;28;20462;-59
2023/11/02 10:07:38;;;;;;;3.57;1.73;;;;;;;;;;5113907;28;20445;-60
2023/11/02 10:10:06;;;;;;;1.70;1.30;;;;;;;;;;5113903;28;20877;-59
2023/11/02 10:12:36;;;;;;;2.00;1.27;;;;;;;;;;5113728;28;20445;-58
2023/11/02 10:15:04;;;;;;;2.87;1.30;;;;;;;;;;5113851;28;20449;-60
2023/11/02 10:17:35;;;;;;;2.40;1.47;;;;;;;;;;5113693;28;20478;-62
2023/11/02 10:20:03;;;;;;;2.70;1.63;;;;;;;;;;5113771;28;20448;-61
2023/11/02 10:22:30;;;;;;;1.80;1.20;;;;;;;;;;5113788;28;20437;-62
2023/11/02 10:24:59;;;;;;;4.50;1.30;;;;;;;;;;5113323;28;20469;-60
2023/11/02 10:27:26;;;;;;;2.23;1.33;;;;;;;;;;5113676;28;20449;-59
2023/11/02 10:29:54;;;;;;;1.10;1.00;;;;;;;;;;5113530;28;20805;-60
2023/11/02 10:32:22;;;;;;;1.73;1.10;;;;;;;;;;5113361;28;20905;-60
2023/11/02 10:34:50;;;;;;;1.23;1.10;;;;;;;;;;5112894;28;20450;-61
2023/11/02 10:37:29;;;;;;;1.60;1.10;;;;;;;;;;5113375;28;20477;-60
2023/11/02 10:39:56;;;;;;;2.67;1.17;;;;;;;;;;5113725;28;20456;-60
2023/11/02 10:42:23;;;;;;;1.80;1.13;;;;;;;;;;5113443;28;20495;-61
2023/11/02 10:44:50;;;;;;;1.10;1.00;;;;;;;;;;5113259;28;20843;-61
2023/11/02 10:47:19;;;;;;;2.80;1.20;;;;;;;;;;5113550;28;21011;-61
2023/11/02 10:49:47;;;;;;;1.43;1.10;;;;;;;;;;5113300;28;20450;-59
2023/11/02 10:52:14;;;;;;;1.40;1.30;;;;;;;;;;5113202;28;20528;-59
2023/11/02 10:54:46;;;;;;;1.53;1.10;;;;;;;;;;5113466;28;20474;-59
2023/11/02 10:57:16;;;;;;;2.73;1.10;;;;;;;;;;5113220;28;20514;-61
2023/11/02 10:59:44;;;;;;;1.20;1.10;;;;;;;;;;5116409;28;20876;-58
2023/11/02 11:02:12;;;;;;;1.20;1.10;;;;;;;;;;5119869;28;20454;-60
2023/11/02 11:04:41;;;;;;;3.00;1.33;;;;;;;;;;5119662;28;20446;-60
2023/11/02 11:07:09;;;;;;;1.33;1.00;;;;;;;;;;5120080;28;20449;-59
2023/11/02 11:09:36;;;;;;;2.60;1.30;;;;;;;;;;5120108;28;20492;-59
2023/11/02 11:12:04;;;;;;;1.30;1.20;;;;;;;;;;5119941;28;20537;-60
2023/11/02 11:14:31;;;;;;;1.60;1.00;;;;;;;;;;5119860;28;20532;-59
2023/11/02 11:16:58;;;;;;;1.30;1.10;;;;;;;;;;5120070;28;20473;-63
2023/11/02 11:19:25;;;;;;;1.00;0.90;;;;;;;;;;5119975;28;20477;-61
2023/11/02 11:21:55;;;;;;;2.40;1.50;;;;;;;;;;5119691;28;20528;-63
2023/11/02 11:24:30;;;;;;;1.43;1.07;;;;;;;;;;5119924;28;20447;-61
2023/11/02 11:26:58;;;;;;;1.97;1.27;;;;;;;;;;5119854;27;20483;-60
2023/11/02 11:29:35;;;;;;;2.30;1.20;;;;;;;;;;5119794;28;20441;-61
2023/11/02 11:32:03;;;;;;;1.20;1.10;;;;;;;;;;5119890;28;20453;-60
2023/11/02 11:34:45;;;;;;;2.13;1.30;;;;;;;;;;5119658;28;20448;-61
2023/11/02 11:37:31;;;;;;;1.30;1.20;;;;;;;;;;5119362;28;20441;-60
2023/11/02 11:39:59;;;;;;;5.00;1.67;;;;;;;;;;5119454;28;20932;-60
2023/11/02 11:42:45;;;;;;;1.50;1.40;;;;;;;;;;5119779;28;20445;-60
2023/11/02 11:45:27;;;;;;;1.60;1.33;;;;;;;;;;5119438;28;20461;-58
2023/11/02 11:47:54;;;;;;;1.97;1.77;;;;;;;;;;5119428;28;20484;-60
2023/11/02 11:50:31;;;;;;;1.40;1.30;;;;;;;;;;5119702;28;20442;-60
2023/11/02 11:53:08;;;;;;;1.47;1.37;;;;;;;;;;5119501;28;20497;-60
2023/11/02 11:55:37;;;;;;;8.37;1.70;;;;;;;;;;5119718;28;20524;-57
2023/11/02 11:58:06;;;;;;;6.20;1.67;;;;;;;;;;5119509;27;20508;-57
2023/11/02 12:00:33;;;;;;;2.13;1.33;;;;;;;;;;5119446;28;20441;-59
2023/11/02 12:03:04;;;;;;;2.50;1.50;;;;;;;;;;5119260;28;20868;-62
2023/11/02 12:05:50;;;;;;;1.67;1.57;;;;;;;;;;5119600;28;20477;-60
2023/11/02 12:08:17;;;;;;;3.47;1.70;;;;;;;;;;5119515;28;20454;-61
2023/11/02 12:10:46;;;;;;;3.50;1.67;;;;;;;;;;5117856;28;20441;-60
2023/11/02 12:13:13;;;;;;;2.17;2.00;;;;;;;;;;5115995;28;20843;-60
2023/11/02 12:15:51;;;;;;;2.90;1.80;;;;;;;;;;5116209;28;20438;-60
2023/11/02 12:18:20;;;;;;;1.70;1.60;;;;;;;;;;5115852;28;20904;-63
2023/11/02 12:20:46;;;;;;;1.73;1.63;;;;;;;;;;5115919;28;20445;-60
2023/11/02 12:23:14;;;;;;;1.83;1.63;;;;;;;;;;5115814;28;20533;-61
2023/11/02 12:25:40;;;;;;;1.63;1.40;;;;;;;;;;5115498;28;20437;-62
2023/11/02 12:28:12;;;;;;;2.47;2.07;;;;;;;;;;5115797;28;20472;-61
2023/11/02 12:30:42;;;;;;;2.80;2.60;;;;;;;;;;5115940;28;20442;-61
2023/11/02 12:33:09;;;;;;;3.80;1.83;;;;;;;;;;5115924;28;20842;-61
2023/11/02 12:35:36;;;;;;;2.70;1.80;;;;;;;;;;5115814;28;20533;-61
2023/11/02 12:38:03;;;;;;;2.27;2.13;;;;;;;;;;5115669;28;20478;-61
2023/11/02 12:40:48;;;;;;;6.73;2.33;;;;;;;;;;5115437;28;20446;-58
2023/11/02 12:43:21;;;;;;;2.10;1.97;;;;;;;;;;5115595;28;20446;-61
2023/11/02 12:45:54;;;;;;;2.40;2.20;;;;;;;;;;5115631;28;20536;-58
2023/11/02 12:48:29;;;;;;;2.00;1.90;;;;;;;;;;5115412;28;20514;-59
2023/11/02 12:50:56;;;;;;;2.70;1.90;;;;;;;;;;5115431;28;20441;-62
2023/11/02 12:53:26;;;;;;;2.60;1.53;;;;;;;;;;5115542;28;20441;-62
2023/11/02 12:55:53;;;;;;;1.80;1.70;;;;;;;;;;5115405;28;20970;-61
2023/11/02 12:58:22;;;;;;;1.83;1.73;;;;;;;;;;5115303;28;20504;-60
2023/11/02 13:00:56;;;;;;;2.37;1.90;;;;;;;;;;5115203;28;20450;-59
2023/11/02 13:03:23;;;;;;;1.83;1.73;;;;;;;;;;5115174;28;20808;-60
2023/11/02 13:05:51;;;;;;;4.60;2.27;;;;;;;;;;5115527;28;20496;-60
2023/11/02 13:08:19;;;;;;;2.07;1.80;;;;;;;;;;5114821;28;20445;-60
2023/11/02 13:10:46;;;;;;;2.20;1.97;;;;;;;;;;5115257;28;20546;-59
2023/11/02 13:13:13;;;;;;;2.57;1.80;;;;;;;;;;5115013;28;20438;-59
2023/11/02 13:15:41;;;;;;;2.60;2.13;;;;;;;;;;5115121;28;20522;-60
2023/11/02 13:18:09;;;;;;;2.33;2.13;;;;;;;;;;5114806;28;20466;-60
2023/11/02 13:20:36;;;;;;;5.53;2.13;;;;;;;;;;5114924;28;20438;-60
2023/11/02 13:23:05;;;;;;;2.07;1.97;;;;;;;;;;5114875;28;20441;-60
2023/11/02 13:25:33;;;;;;;2.17;1.97;;;;;;;;;;5114839;28;20446;-61
2023/11/02 13:28:01;;;;;;;2.00;1.90;;;;;;;;;;5114780;28;20802;-59
2023/11/02 13:30:29;;;;;;;2.70;2.13;;;;;;;;;;5114687;28;20437;-58
2023/11/02 13:32:57;;;;;;;5.73;2.00;;;;;;;;;;5114798;28;20434;-59
2023/11/02 13:35:25;;;;;;;4.70;2.20;;;;;;;;;;5114663;28;20445;-61
2023/11/02 13:37:52;;;;;;;2.27;2.07;;;;;;;;;;5114530;28;21011;-59
2023/11/02 13:40:22;;;;;;;3.33;2.40;;;;;;;;;;5114864;28;20961;-59
2023/11/02 13:42:49;;;;;;;3.00;2.43;;;;;;;;;;5114688;28;20897;-59
2023/11/02 13:45:16;;;;;;;2.40;2.30;;;;;;;;;;5114554;28;20867;-59
2023/11/02 13:47:45;;;;;;;3.03;2.83;;;;;;;;;;5114512;28;20495;-59
2023/11/02 13:50:14;;;;;;;2.93;2.70;;;;;;;;;;5114688;28;20477;-58
2023/11/02 13:52:42;;;;;;;2.20;2.10;;;;;;;;;;5114307;28;20477;-59
2023/11/02 13:55:10;;;;;;;2.80;2.60;;;;;;;;;;5114293;28;20555;-59
2023/11/02 13:57:37;;;;;;;4.80;2.87;;;;;;;;;;5114203;28;20442;-59
2023/11/02 14:00:04;;;;;;;5.07;2.70;;;;;;;;;;5114344;28;20481;-59
2023/11/02 14:02:31;;;;;;;3.67;2.10;;;;;;;;;;5114192;28;20536;-59
2023/11/02 14:04:59;;;;;;;4.13;2.90;;;;;;;;;;5114104;28;20490;-59
2023/11/02 14:07:29;;;;;;;2.73;2.60;;;;;;;;;;5114345;28;20445;-58
2023/11/02 14:09:56;;;;;;;3.27;3.07;;;;;;;;;;5113885;28;20520;-59
2023/11/02 14:12:23;;;;;;;3.00;2.83;;;;;;;;;;5114146;28;20438;-59
2023/11/02 14:14:51;;;;;;;3.47;2.67;;;;;;;;;;5113904;28;20995;-59
2023/11/02 14:17:19;;;;;;;3.00;2.80;;;;;;;;;;5113962;28;20444;-59
2023/11/02 14:19:47;;;;;;;3.33;3.10;;;;;;;;;;5113781;28;20477;-59
2023/11/02 14:22:14;;;;;;;3.27;2.97;;;;;;;;;;5113630;28;20446;-59
2023/11/02 14:24:43;;;;;;;3.67;2.60;;;;;;;;;;5113677;28;20446;-59
2023/11/02 14:27:10;;;;;;;3.23;3.03;;;;;;;;;;5113890;28;20449;-59
2023/11/02 14:29:37;;;;;;;3.13;2.93;;;;;;;;;;5113631;28;20442;-59
2023/11/02 14:32:05;;;;;;;3.20;2.70;;;;;;;;;;5113695;28;20495;-59
2023/11/02 14:34:32;;;;;;;3.83;2.40;;;;;;;;;;5113170;28;20538;-59
2023/11/02 14:36:59;;;;;;;2.80;2.60;;;;;;;;;;5113574;28;20451;-59
2023/11/02 14:39:26;;;;;;;2.73;2.57;;;;;;;;;;5113668;28;20481;-59
2023/11/02 14:41:55;;;;;;;3.23;3.03;;;;;;;;;;5113671;28;20781;-59
2023/11/02 14:44:22;;;;;;;3.97;2.83;;;;;;;;;;5113501;28;20810;-59
2023/11/02 14:46:49;;;;;;;3.10;2.90;;;;;;;;;;5113593;28;20864;-59
2023/11/02 14:49:16;;;;;;;3.33;3.13;;;;;;;;;;5113521;28;20534;-59
2023/11/02 14:51:43;;;;;;;2.80;2.70;;;;;;;;;;5113199;28;20442;-59
2023/11/02 14:54:09;;;;;;;3.20;2.90;;;;;;;;;;5113600;28;20536;-59